Terminal Aerodrome Forecast
Issued by NWS Burlington, VT

Home | Current Version | Previous Version | Text Only | Print | Product List | Glossary On
Versions: 1 2 3 4 5 6 7 8 9 10 11 12 13 14 15 16 17
000
FTUS41 KBTV 192141 AAB
TAFBTV
TAF AMD
KBTV 192141Z 1922/2018 36004KT P6SM SCT028 OVC035
      TEMPO 1922/1924 BKN028 OVC035
     FM200200 00000KT P6SM OVC015
     FM200500 00000KT 4SM BR OVC008
     FM201600 18006KT P6SM BKN012=

USA.gov is the U.S. government's official web portal to all federal, state and local government web resources and services.